Terminal Aerodrome Forecast
Issued by NWS

Home | Current Version | Previous Version | Text Only | Print | Product List | Glossary On
Versions: 1 2 3 4 5 6 7 8 9 10 11 12 13
497
FTUS42 KTBW 191729
TAFLAL
TAF
KLAL 191729Z 1918/2018 23010G18KT P6SM SCT025 SCT080
      TEMPO 1919/1923 SHRA BKN025 OVC060
     FM192300 34010KT P6SM SCT025 BKN060
     FM200300 35007KT P6SM FEW045 SCT100
     FM201200 02007KT P6SM FEW100 FEW250
     FM201600 06009KT P6SM FEW250=

USA.gov is the U.S. government's official web portal to all federal, state and local government web resources and services.